Погода Помориена неделю

Бургас, Болгария

16 - 22 июня
  • 16июня
    Сегодня
    +19°
    +27°
    Ясно и безоблачно
    ВремяПогодаТемператураВлажностьДавлениеВетер, м/сВероятность осадков
    00:00Ясно и безоблачно+22°C77 %759 мм2.8 м/с2 %
    03:00Ясно и безоблачно+20°C86 %758 мм2.4 м/с2 %
    06:00Ясно и безоблачно+19°C87 %759 мм2.1 м/с2 %
    09:00Ясно и безоблачно+22°C64 %759 мм3.1 м/с2 %
    12:00Ясно и безоблачно+27°C59 %759 мм2.2 м/с2 %
    15:00Ясно и безоблачно+26°C60 %759 мм8.2 м/с2 %
    18:00Ясно и безоблачно+26°C62 %758 мм7.6 м/с2 %
    21:00Ясно и безоблачно+24°C72 %758 мм6.1 м/с2 %
  • 17июня
    Понедельник
    +21°
    +29°
    Ясно и безоблачно
    ВремяПогодаТемператураВлажностьДавлениеВетер, м/сВероятность осадков
    00:00Ясно и безоблачно+23°C71 %759 мм3.1 м/с2 %
    03:00Ясно и безоблачно+21°C74 %760 мм2.6 м/с2 %
    06:00Ясно и безоблачно+20°C81 %760 мм2.4 м/с2 %
    09:00Ясно и безоблачно+23°C62 %761 мм3.6 м/с2 %
    12:00Ясно и безоблачно+29°C52 %761 мм2.5 м/с2 %
    15:00Ясно и безоблачно+27°C58 %761 мм7.8 м/с3 %
    18:00Ясно и безоблачно+27°C60 %760 мм8.9 м/с2 %
    21:00Ясно и безоблачно+26°C73 %761 мм5.2 м/с2 %
  • 18июня
    Вторник
    +21°
    +28°
    Ясно и безоблачно
    ВремяПогодаТемператураВлажностьДавлениеВетер, м/сВероятность осадков
    00:00Ясно и безоблачно+24°C80 %762 мм3.1 м/с2 %
    03:00Ясно и безоблачно+23°C77 %762 мм2.4 м/с2 %
    06:00Ясно и безоблачно+21°C79 %762 мм1.4 м/с2 %
    09:00Ясно и безоблачно+24°C64 %763 мм2.2 м/с2 %
    12:00Ясно и безоблачно+28°C58 %763 мм4.9 м/с2 %
    15:00Ясно и безоблачно+28°C57 %763 мм9.6 м/с4 %
    18:00Небольшая облачность+26°C60 %763 мм9.3 м/с3 %
    21:00Ясно и безоблачно+25°C74 %763 мм5.4 м/с2 %
  • 19июня
    Среда
    +19°
    +28°
    Небольшая облачность
    ВремяПогодаТемператураВлажностьДавлениеВетер, м/сВероятность осадков
    00:00Ясно и безоблачно+24°C84 %764 мм3.8 м/с2 %
    03:00Ясно и безоблачно+23°C82 %763 мм2.4 м/с2 %
    06:00Ясно и безоблачно+21°C83 %764 мм1.4 м/с2 %
    09:00Ясно и безоблачно+24°C63 %764 мм3.1 м/с2 %
    12:00Ясно и безоблачно+27°C58 %764 мм5.7 м/с2 %
    15:00Небольшая облачность+26°C64 %764 мм9.5 м/с2 %
    18:00Ясно и безоблачно+25°C67 %763 мм9.4 м/с2 %
    21:00Ясно и безоблачно+24°C77 %764 мм5.3 м/с2 %
Мы используем cookies
Соглашаюсь